sensor_id;sensor_type;location;lat;lon;timestamp;P1;durP1;ratioP1;P2;durP2;ratioP2
42864;SDS011;28511;42.680;23.252;2023-04-15T00:01:45;1.92;;;1.83;;
42864;SDS011;28511;42.680;23.252;2023-04-15T00:04:11;0.73;;;0.73;;
42864;SDS011;28511;42.680;23.252;2023-04-15T00:06:36;2.50;;;1.00;;
42864;SDS011;28511;42.680;23.252;2023-04-15T00:09:03;4.60;;;1.60;;
42864;SDS011;28511;42.680;23.252;2023-04-15T00:11:29;2.55;;;1.88;;
42864;SDS011;28511;42.680;23.252;2023-04-15T00:13:54;1.73;;;1.25;;
42864;SDS011;28511;42.680;23.252;2023-04-15T00:16:19;1.30;;;1.08;;
42864;SDS011;28511;42.680;23.252;2023-04-15T00:18:45;0.93;;;0.93;;
42864;SDS011;28511;42.680;23.252;2023-04-15T00:21:10;0.73;;;0.68;;
42864;SDS011;28511;42.680;23.252;2023-04-15T00:23:36;1.52;;;1.42;;
42864;SDS011;28511;42.680;23.252;2023-04-15T00:26:01;1.33;;;1.10;;
42864;SDS011;28511;42.680;23.252;2023-04-15T00:28:27;1.35;;;1.25;;
42864;SDS011;28511;42.680;23.252;2023-04-15T00:30:52;3.00;;;2.38;;
42864;SDS011;28511;42.680;23.252;2023-04-15T00:33:17;3.92;;;2.50;;
42864;SDS011;28511;42.680;23.252;2023-04-15T00:35:43;5.03;;;2.38;;
42864;SDS011;28511;42.680;23.252;2023-04-15T00:38:08;0.70;;;0.70;;
42864;SDS011;28511;42.680;23.252;2023-04-15T00:40:33;1.45;;;0.95;;
42864;SDS011;28511;42.680;23.252;2023-04-15T00:42:59;1.70;;;1.17;;
42864;SDS011;28511;42.680;23.252;2023-04-15T00:45:25;3.75;;;1.80;;
42864;SDS011;28511;42.680;23.252;2023-04-15T00:47:50;3.45;;;1.42;;
42864;SDS011;28511;42.680;23.252;2023-04-15T00:50:15;1.83;;;1.02;;
42864;SDS011;28511;42.680;23.252;2023-04-15T00:52:41;1.40;;;1.30;;
42864;SDS011;28511;42.680;23.252;2023-04-15T00:55:08;0.85;;;0.85;;
42864;SDS011;28511;42.680;23.252;2023-04-15T00:57:34;0.75;;;0.75;;
42864;SDS011;28511;42.680;23.252;2023-04-15T00:59:59;1.05;;;1.05;;
42864;SDS011;28511;42.680;23.252;2023-04-15T01:02:25;1.75;;;1.27;;
42864;SDS011;28511;42.680;23.252;2023-04-15T01:04:51;3.88;;;2.22;;
42864;SDS011;28511;42.680;23.252;2023-04-15T01:07:16;4.70;;;1.48;;
42864;SDS011;28511;42.680;23.252;2023-04-15T01:09:42;0.40;;;0.40;;
42864;SDS011;28511;42.680;23.252;2023-04-15T01:12:08;1.00;;;0.82;;
42864;SDS011;28511;42.680;23.252;2023-04-15T01:14:34;2.17;;;0.80;;
42864;SDS011;28511;42.680;23.252;2023-04-15T01:16:59;1.20;;;1.10;;
42864;SDS011;28511;42.680;23.252;2023-04-15T01:19:25;1.75;;;1.30;;
42864;SDS011;28511;42.680;23.252;2023-04-15T01:21:51;3.72;;;1.65;;
42864;SDS011;28511;42.680;23.252;2023-04-15T01:24:17;2.00;;;1.30;;
42864;SDS011;28511;42.680;23.252;2023-04-15T01:26:42;0.95;;;0.73;;
42864;SDS011;28511;42.680;23.252;2023-04-15T01:29:08;2.17;;;1.35;;
42864;SDS011;28511;42.680;23.252;2023-04-15T01:31:33;1.55;;;0.80;;
42864;SDS011;28511;42.680;23.252;2023-04-15T01:33:58;1.25;;;0.98;;
42864;SDS011;28511;42.680;23.252;2023-04-15T01:36:24;2.28;;;1.92;;
42864;SDS011;28511;42.680;23.252;2023-04-15T01:38:49;1.98;;;0.43;;
42864;SDS011;28511;42.680;23.252;2023-04-15T01:41:15;1.00;;;0.93;;
42864;SDS011;28511;42.680;23.252;2023-04-15T01:43:41;1.38;;;1.27;;
42864;SDS011;28511;42.680;23.252;2023-04-15T01:46:06;2.88;;;0.80;;
42864;SDS011;28511;42.680;23.252;2023-04-15T01:48:32;1.08;;;1.02;;
42864;SDS011;28511;42.680;23.252;2023-04-15T01:50:58;0.40;;;0.40;;
42864;SDS011;28511;42.680;23.252;2023-04-15T01:53:23;1.75;;;0.95;;
42864;SDS011;28511;42.680;23.252;2023-04-15T01:55:49;1.00;;;1.00;;
42864;SDS011;28511;42.680;23.252;2023-04-15T01:58:15;1.42;;;1.33;;
42864;SDS011;28511;42.680;23.252;2023-04-15T02:00:41;6.07;;;1.63;;
42864;SDS011;28511;42.680;23.252;2023-04-15T02:03:06;1.65;;;1.10;;
42864;SDS011;28511;42.680;23.252;2023-04-15T02:05:32;0.68;;;0.68;;
42864;SDS011;28511;42.680;23.252;2023-04-15T02:07:57;2.22;;;1.55;;
42864;SDS011;28511;42.680;23.252;2023-04-15T02:10:23;1.30;;;0.98;;
42864;SDS011;28511;42.680;23.252;2023-04-15T02:12:48;1.58;;;1.17;;
42864;SDS011;28511;42.680;23.252;2023-04-15T02:15:13;4.97;;;2.28;;
42864;SDS011;28511;42.680;23.252;2023-04-15T02:17:39;2.03;;;1.05;;
42864;SDS011;28511;42.680;23.252;2023-04-15T02:20:04;1.60;;;0.90;;
42864;SDS011;28511;42.680;23.252;2023-04-15T02:22:30;1.92;;;0.75;;
42864;SDS011;28511;42.680;23.252;2023-04-15T02:24:55;0.95;;;0.93;;
42864;SDS011;28511;42.680;23.252;2023-04-15T02:27:20;0.50;;;0.50;;
42864;SDS011;28511;42.680;23.252;2023-04-15T02:29:46;1.65;;;1.05;;
42864;SDS011;28511;42.680;23.252;2023-04-15T02:32:12;1.33;;;0.93;;
42864;SDS011;28511;42.680;23.252;2023-04-15T02:34:37;1.17;;;0.85;;
42864;SDS011;28511;42.680;23.252;2023-04-15T02:37:05;1.15;;;0.93;;
42864;SDS011;28511;42.680;23.252;2023-04-15T02:39:30;1.45;;;0.70;;
42864;SDS011;28511;42.680;23.252;2023-04-15T02:41:56;1.25;;;1.15;;
42864;SDS011;28511;42.680;23.252;2023-04-15T02:44:23;0.98;;;0.95;;
42864;SDS011;28511;42.680;23.252;2023-04-15T02:46:48;3.00;;;1.80;;
42864;SDS011;28511;42.680;23.252;2023-04-15T02:49:16;1.70;;;0.70;;
42864;SDS011;28511;42.680;23.252;2023-04-15T02:51:42;1.30;;;1.20;;
42864;SDS011;28511;42.680;23.252;2023-04-15T02:54:07;0.70;;;0.65;;
42864;SDS011;28511;42.680;23.252;2023-04-15T02:56:32;0.93;;;0.90;;
42864;SDS011;28511;42.680;23.252;2023-04-15T02:58:58;2.58;;;1.27;;
42864;SDS011;28511;42.680;23.252;2023-04-15T03:01:23;1.88;;;1.02;;
42864;SDS011;28511;42.680;23.252;2023-04-15T03:03:48;1.88;;;1.20;;
42864;SDS011;28511;42.680;23.252;2023-04-15T03:06:14;2.83;;;0.88;;
42864;SDS011;28511;42.680;23.252;2023-04-15T03:08:39;0.70;;;0.70;;
42864;SDS011;28511;42.680;23.252;2023-04-15T03:11:04;0.70;;;0.70;;
42864;SDS011;28511;42.680;23.252;2023-04-15T03:13:30;1.55;;;1.02;;
42864;SDS011;28511;42.680;23.252;2023-04-15T03:15:55;4.55;;;1.85;;
42864;SDS011;28511;42.680;23.252;2023-04-15T03:18:20;0.68;;;0.65;;
42864;SDS011;28511;42.680;23.252;2023-04-15T03:20:46;1.00;;;1.00;;
42864;SDS011;28511;42.680;23.252;2023-04-15T03:23:11;1.25;;;0.85;;
42864;SDS011;28511;42.680;23.252;2023-04-15T03:25:37;1.17;;;1.08;;
42864;SDS011;28511;42.680;23.252;2023-04-15T03:28:03;2.28;;;1.30;;
42864;SDS011;28511;42.680;23.252;2023-04-15T03:30:28;1.42;;;1.33;;
42864;SDS011;28511;42.680;23.252;2023-04-15T03:32:53;1.33;;;1.23;;
42864;SDS011;28511;42.680;23.252;2023-04-15T03:35:18;1.92;;;1.75;;
42864;SDS011;28511;42.680;23.252;2023-04-15T03:37:44;0.93;;;0.90;;
42864;SDS011;28511;42.680;23.252;2023-04-15T03:40:09;1.27;;;1.17;;
42864;SDS011;28511;42.680;23.252;2023-04-15T03:42:35;0.88;;;0.88;;
42864;SDS011;28511;42.680;23.252;2023-04-15T03:45:00;1.83;;;1.60;;
42864;SDS011;28511;42.680;23.252;2023-04-15T03:47:25;1.40;;;1.02;;
42864;SDS011;28511;42.680;23.252;2023-04-15T03:49:50;1.63;;;1.52;;
42864;SDS011;28511;42.680;23.252;2023-04-15T03:52:16;4.40;;;1.90;;
42864;SDS011;28511;42.680;23.252;2023-04-15T03:54:41;3.28;;;1.85;;
42864;SDS011;28511;42.680;23.252;2023-04-15T03:57:06;1.83;;;1.73;;
42864;SDS011;28511;42.680;23.252;2023-04-15T03:59:32;1.83;;;1.50;;
42864;SDS011;28511;42.680;23.252;2023-04-15T04:01:57;1.88;;;1.25;;
42864;SDS011;28511;42.680;23.252;2023-04-15T04:04:22;1.52;;;1.40;;
42864;SDS011;28511;42.680;23.252;2023-04-15T04:06:47;2.85;;;1.63;;
42864;SDS011;28511;42.680;23.252;2023-04-15T04:09:13;1.27;;;1.08;;
42864;SDS011;28511;42.680;23.252;2023-04-15T04:11:38;7.10;;;2.58;;
42864;SDS011;28511;42.680;23.252;2023-04-15T04:14:03;2.97;;;1.75;;
42864;SDS011;28511;42.680;23.252;2023-04-15T04:16:28;2.30;;;1.63;;
42864;SDS011;28511;42.680;23.252;2023-04-15T04:18:54;1.40;;;1.30;;
42864;SDS011;28511;42.680;23.252;2023-04-15T04:21:19;1.35;;;1.20;;
42864;SDS011;28511;42.680;23.252;2023-04-15T04:23:45;2.00;;;1.23;;
42864;SDS011;28511;42.680;23.252;2023-04-15T04:26:10;0.93;;;0.93;;
42864;SDS011;28511;42.680;23.252;2023-04-15T04:28:36;1.20;;;0.93;;
42864;SDS011;28511;42.680;23.252;2023-04-15T04:31:03;1.75;;;1.02;;
42864;SDS011;28511;42.680;23.252;2023-04-15T04:33:28;0.90;;;0.90;;
42864;SDS011;28511;42.680;23.252;2023-04-15T04:35:54;1.20;;;1.10;;
42864;SDS011;28511;42.680;23.252;2023-04-15T04:38:19;1.80;;;1.70;;
42864;SDS011;28511;42.680;23.252;2023-04-15T04:40:45;2.92;;;1.63;;
42864;SDS011;28511;42.680;23.252;2023-04-15T04:43:10;3.92;;;1.67;;
42864;SDS011;28511;42.680;23.252;2023-04-15T04:45:36;1.60;;;1.50;;
42864;SDS011;28511;42.680;23.252;2023-04-15T04:48:02;5.20;;;1.77;;
42864;SDS011;28511;42.680;23.252;2023-04-15T04:50:30;2.63;;;1.40;;
42864;SDS011;28511;42.680;23.252;2023-04-15T04:52:56;3.00;;;2.00;;
42864;SDS011;28511;42.680;23.252;2023-04-15T04:55:21;1.43;;;1.33;;
42864;SDS011;28511;42.680;23.252;2023-04-15T04:57:46;1.50;;;1.13;;
42864;SDS011;28511;42.680;23.252;2023-04-15T05:00:12;1.65;;;1.30;;
42864;SDS011;28511;42.680;23.252;2023-04-15T05:02:38;2.53;;;1.42;;
42864;SDS011;28511;42.680;23.252;2023-04-15T05:05:03;2.03;;;0.80;;
42864;SDS011;28511;42.680;23.252;2023-04-15T05:07:28;1.80;;;1.70;;
42864;SDS011;28511;42.680;23.252;2023-04-15T05:09:54;2.08;;;1.67;;
42864;SDS011;28511;42.680;23.252;2023-04-15T05:12:19;3.08;;;1.95;;
42864;SDS011;28511;42.680;23.252;2023-04-15T05:14:45;2.38;;;1.30;;
42864;SDS011;28511;42.680;23.252;2023-04-15T05:17:10;2.17;;;0.90;;
42864;SDS011;28511;42.680;23.252;2023-04-15T05:19:36;1.95;;;1.30;;
42864;SDS011;28511;42.680;23.252;2023-04-15T05:22:01;2.25;;;1.33;;
42864;SDS011;28511;42.680;23.252;2023-04-15T05:24:27;1.17;;;1.08;;
42864;SDS011;28511;42.680;23.252;2023-04-15T05:26:52;3.28;;;1.60;;
42864;SDS011;28511;42.680;23.252;2023-04-15T05:29:17;3.40;;;1.30;;
42864;SDS011;28511;42.680;23.252;2023-04-15T05:31:43;2.28;;;1.02;;
42864;SDS011;28511;42.680;23.252;2023-04-15T05:34:08;1.92;;;1.60;;
42864;SDS011;28511;42.680;23.252;2023-04-15T05:36:34;3.17;;;1.83;;
42864;SDS011;28511;42.680;23.252;2023-04-15T05:38:59;4.53;;;2.03;;
42864;SDS011;28511;42.680;23.252;2023-04-15T05:41:24;5.63;;;3.47;;
42864;SDS011;28511;42.680;23.252;2023-04-15T05:43:50;7.75;;;4.65;;
42864;SDS011;28511;42.680;23.252;2023-04-15T05:46:15;7.25;;;3.20;;
42864;SDS011;28511;42.680;23.252;2023-04-15T05:48:41;7.97;;;4.63;;
42864;SDS011;28511;42.680;23.252;2023-04-15T05:51:06;7.07;;;4.07;;
42864;SDS011;28511;42.680;23.252;2023-04-15T05:53:31;8.52;;;5.82;;
42864;SDS011;28511;42.680;23.252;2023-04-15T05:55:57;6.68;;;4.30;;
42864;SDS011;28511;42.680;23.252;2023-04-15T05:58:22;7.78;;;4.03;;
42864;SDS011;28511;42.680;23.252;2023-04-15T06:00:47;5.77;;;4.37;;
42864;SDS011;28511;42.680;23.252;2023-04-15T06:03:13;7.57;;;3.88;;
42864;SDS011;28511;42.680;23.252;2023-04-15T06:05:38;6.03;;;3.90;;
42864;SDS011;28511;42.680;23.252;2023-04-15T06:08:04;9.00;;;4.43;;
42864;SDS011;28511;42.680;23.252;2023-04-15T06:10:30;7.10;;;3.40;;
42864;SDS011;28511;42.680;23.252;2023-04-15T06:13:00;7.65;;;4.00;;
42864;SDS011;28511;42.680;23.252;2023-04-15T06:15:25;6.30;;;3.33;;
42864;SDS011;28511;42.680;23.252;2023-04-15T06:17:51;6.72;;;3.33;;
42864;SDS011;28511;42.680;23.252;2023-04-15T06:20:16;8.02;;;4.18;;
42864;SDS011;28511;42.680;23.252;2023-04-15T06:22:41;4.40;;;2.67;;
42864;SDS011;28511;42.680;23.252;2023-04-15T06:25:07;5.03;;;2.33;;
42864;SDS011;28511;42.680;23.252;2023-04-15T06:27:33;3.85;;;2.75;;
42864;SDS011;28511;42.680;23.252;2023-04-15T06:29:58;4.13;;;2.50;;
42864;SDS011;28511;42.680;23.252;2023-04-15T06:32:23;11.60;;;2.90;;
42864;SDS011;28511;42.680;23.252;2023-04-15T06:34:49;4.47;;;2.50;;
42864;SDS011;28511;42.680;23.252;2023-04-15T06:37:14;6.03;;;3.28;;
42864;SDS011;28511;42.680;23.252;2023-04-15T06:39:40;5.68;;;2.35;;
42864;SDS011;28511;42.680;23.252;2023-04-15T06:42:06;4.80;;;1.88;;
42864;SDS011;28511;42.680;23.252;2023-04-15T06:44:32;4.25;;;3.03;;
42864;SDS011;28511;42.680;23.252;2023-04-15T06:46:57;3.43;;;2.20;;
42864;SDS011;28511;42.680;23.252;2023-04-15T06:49:22;3.53;;;1.73;;
42864;SDS011;28511;42.680;23.252;2023-04-15T06:51:47;3.50;;;2.50;;
42864;SDS011;28511;42.680;23.252;2023-04-15T06:54:13;2.00;;;1.80;;
42864;SDS011;28511;42.680;23.252;2023-04-15T06:56:38;3.20;;;1.90;;
42864;SDS011;28511;42.680;23.252;2023-04-15T06:59:03;2.30;;;1.95;;
42864;SDS011;28511;42.680;23.252;2023-04-15T07:01:28;3.67;;;2.17;;
42864;SDS011;28511;42.680;23.252;2023-04-15T07:03:54;3.25;;;1.20;;
42864;SDS011;28511;42.680;23.252;2023-04-15T07:06:19;2.17;;;0.60;;
42864;SDS011;28511;42.680;23.252;2023-04-15T07:08:46;1.92;;;0.63;;
42864;SDS011;28511;42.680;23.252;2023-04-15T07:11:11;0.75;;;0.45;;
42864;SDS011;28511;42.680;23.252;2023-04-15T07:13:36;0.43;;;0.30;;
42864;SDS011;28511;42.680;23.252;2023-04-15T07:16:01;0.37;;;0.37;;
42864;SDS011;28511;42.680;23.252;2023-04-15T07:18:27;3.07;;;0.60;;
42864;SDS011;28511;42.680;23.252;2023-04-15T07:20:52;0.97;;;0.83;;
42864;SDS011;28511;42.680;23.252;2023-04-15T07:23:17;0.30;;;0.30;;
42864;SDS011;28511;42.680;23.252;2023-04-15T07:25:42;0.55;;;0.35;;
42864;SDS011;28511;42.680;23.252;2023-04-15T07:28:08;0.57;;;0.40;;
42864;SDS011;28511;42.680;23.252;2023-04-15T07:30:33;0.75;;;0.30;;
42864;SDS011;28511;42.680;23.252;2023-04-15T07:32:58;0.28;;;0.28;;
42864;SDS011;28511;42.680;23.252;2023-04-15T07:35:24;0.95;;;0.40;;
42864;SDS011;28511;42.680;23.252;2023-04-15T07:37:50;1.00;;;0.38;;
42864;SDS011;28511;42.680;23.252;2023-04-15T07:40:16;1.52;;;1.13;;
42864;SDS011;28511;42.680;23.252;2023-04-15T07:42:41;0.70;;;0.40;;
42864;SDS011;28511;42.680;23.252;2023-04-15T07:45:07;0.70;;;0.55;;
42864;SDS011;28511;42.680;23.252;2023-04-15T07:47:33;0.30;;;0.30;;
42864;SDS011;28511;42.680;23.252;2023-04-15T07:49:58;0.43;;;0.30;;
42864;SDS011;28511;42.680;23.252;2023-04-15T07:52:24;1.25;;;0.65;;
42864;SDS011;28511;42.680;23.252;2023-04-15T07:54:49;0.30;;;0.30;;
42864;SDS011;28511;42.680;23.252;2023-04-15T07:57:15;10.13;;;0.95;;
42864;SDS011;28511;42.680;23.252;2023-04-15T07:59:41;13.07;;;0.93;;
42864;SDS011;28511;42.680;23.252;2023-04-15T08:02:06;0.57;;;0.28;;
42864;SDS011;28511;42.680;23.252;2023-04-15T08:04:32;0.60;;;0.60;;
42864;SDS011;28511;42.680;23.252;2023-04-15T08:06:57;0.63;;;0.57;;
42864;SDS011;28511;42.680;23.252;2023-04-15T08:09:23;0.20;;;0.20;;
42864;SDS011;28511;42.680;23.252;2023-04-15T08:11:48;0.73;;;0.67;;
42864;SDS011;28511;42.680;23.252;2023-04-15T08:14:14;0.60;;;0.60;;
42864;SDS011;28511;42.680;23.252;2023-04-15T08:16:39;0.60;;;0.30;;
42864;SDS011;28511;42.680;23.252;2023-04-15T08:19:04;0.25;;;0.25;;
42864;SDS011;28511;42.680;23.252;2023-04-15T08:21:30;0.47;;;0.45;;
42864;SDS011;28511;42.680;23.252;2023-04-15T08:23:55;0.22;;;0.22;;
42864;SDS011;28511;42.680;23.252;2023-04-15T08:26:20;1.40;;;0.50;;
42864;SDS011;28511;42.680;23.252;2023-04-15T08:28:46;1.23;;;1.13;;
42864;SDS011;28511;42.680;23.252;2023-04-15T08:31:11;0.40;;;0.40;;
42864;SDS011;28511;42.680;23.252;2023-04-15T08:33:38;0.77;;;0.40;;
42864;SDS011;28511;42.680;23.252;2023-04-15T08:36:03;0.28;;;0.28;;
42864;SDS011;28511;42.680;23.252;2023-04-15T08:38:28;1.00;;;0.98;;
42864;SDS011;28511;42.680;23.252;2023-04-15T08:40:54;0.32;;;0.30;;
42864;SDS011;28511;42.680;23.252;2023-04-15T08:43:20;1.33;;;0.63;;
42864;SDS011;28511;42.680;23.252;2023-04-15T08:45:51;0.45;;;0.45;;
42864;SDS011;28511;42.680;23.252;2023-04-15T08:48:16;0.30;;;0.30;;
42864;SDS011;28511;42.680;23.252;2023-04-15T08:50:42;0.30;;;0.30;;
42864;SDS011;28511;42.680;23.252;2023-04-15T08:53:08;0.60;;;0.30;;
42864;SDS011;28511;42.680;23.252;2023-04-15T08:55:35;0.28;;;0.20;;
42864;SDS011;28511;42.680;23.252;2023-04-15T08:58:00;0.20;;;0.20;;
42864;SDS011;28511;42.680;23.252;2023-04-15T09:00:26;1.05;;;0.73;;
42864;SDS011;28511;42.680;23.252;2023-04-15T09:02:51;1.08;;;0.52;;
42864;SDS011;28511;42.680;23.252;2023-04-15T09:05:17;0.57;;;0.45;;
42864;SDS011;28511;42.680;23.252;2023-04-15T09:07:42;0.40;;;0.40;;
42864;SDS011;28511;42.680;23.252;2023-04-15T09:10:08;1.05;;;0.40;;
42864;SDS011;28511;42.680;23.252;2023-04-15T09:12:34;0.30;;;0.30;;
42864;SDS011;28511;42.680;23.252;2023-04-15T09:15:00;1.30;;;0.50;;
42864;SDS011;28511;42.680;23.252;2023-04-15T09:17:26;0.57;;;0.28;;
42864;SDS011;28511;42.680;23.252;2023-04-15T09:20:07;1.40;;;0.32;;
42864;SDS011;28511;42.680;23.252;2023-04-15T09:22:32;0.75;;;0.57;;
42864;SDS011;28511;42.680;23.252;2023-04-15T09:24:58;4.05;;;0.55;;
42864;SDS011;28511;42.680;23.252;2023-04-15T09:27:23;0.50;;;0.30;;
42864;SDS011;28511;42.680;23.252;2023-04-15T09:29:52;0.30;;;0.30;;
42864;SDS011;28511;42.680;23.252;2023-04-15T09:32:17;0.50;;;0.50;;
42864;SDS011;28511;42.680;23.252;2023-04-15T09:34:43;0.93;;;0.40;;
42864;SDS011;28511;42.680;23.252;2023-04-15T09:37:08;0.52;;;0.40;;
42864;SDS011;28511;42.680;23.252;2023-04-15T09:39:44;0.93;;;0.40;;
42864;SDS011;28511;42.680;23.252;2023-04-15T09:42:11;0.20;;;0.20;;
42864;SDS011;28511;42.680;23.252;2023-04-15T09:44:36;1.45;;;0.52;;
42864;SDS011;28511;42.680;23.252;2023-04-15T09:47:01;0.73;;;0.33;;
42864;SDS011;28511;42.680;23.252;2023-04-15T09:49:27;0.20;;;0.20;;
42864;SDS011;28511;42.680;23.252;2023-04-15T09:51:56;1.23;;;0.30;;
42864;SDS011;28511;42.680;23.252;2023-04-15T09:54:22;0.20;;;0.20;;
42864;SDS011;28511;42.680;23.252;2023-04-15T09:56:47;0.98;;;0.85;;
42864;SDS011;28511;42.680;23.252;2023-04-15T09:59:13;0.30;;;0.30;;
42864;SDS011;28511;42.680;23.252;2023-04-15T10:01:38;0.30;;;0.20;;
42864;SDS011;28511;42.680;23.252;2023-04-15T10:04:05;0.30;;;0.30;;
42864;SDS011;28511;42.680;23.252;2023-04-15T10:06:30;0.30;;;0.30;;
42864;SDS011;28511;42.680;23.252;2023-04-15T10:08:56;0.50;;;0.50;;
42864;SDS011;28511;42.680;23.252;2023-04-15T10:11:22;0.20;;;0.20;;
42864;SDS011;28511;42.680;23.252;2023-04-15T10:13:48;0.17;;;0.15;;
42864;SDS011;28511;42.680;23.252;2023-04-15T10:16:14;0.40;;;0.40;;
42864;SDS011;28511;42.680;23.252;2023-04-15T10:18:44;0.13;;;0.13;;
42864;SDS011;28511;42.680;23.252;2023-04-15T10:21:09;0.47;;;0.45;;
42864;SDS011;28511;42.680;23.252;2023-04-15T10:23:35;2.50;;;0.40;;
42864;SDS011;28511;42.680;23.252;2023-04-15T10:26:00;0.30;;;0.30;;
42864;SDS011;28511;42.680;23.252;2023-04-15T10:28:26;0.20;;;0.20;;
42864;SDS011;28511;42.680;23.252;2023-04-15T10:30:52;0.45;;;0.45;;
42864;SDS011;28511;42.680;23.252;2023-04-15T10:33:19;1.45;;;0.85;;
42864;SDS011;28511;42.680;23.252;2023-04-15T10:35:45;0.20;;;0.20;;
42864;SDS011;28511;42.680;23.252;2023-04-15T10:38:53;0.30;;;0.30;;
42864;SDS011;28511;42.680;23.252;2023-04-15T10:41:13;0.32;;;0.32;;
42864;SDS011;28511;42.680;23.252;2023-04-15T10:43:39;0.47;;;0.47;;
42864;SDS011;28511;42.680;23.252;2023-04-15T10:46:04;1.05;;;0.55;;
42864;SDS011;28511;42.680;23.252;2023-04-15T10:48:30;0.95;;;0.52;;
42864;SDS011;28511;42.680;23.252;2023-04-15T10:50:56;0.50;;;0.50;;
42864;SDS011;28511;42.680;23.252;2023-04-15T10:53:28;0.63;;;0.60;;
42864;SDS011;28511;42.680;23.252;2023-04-15T10:55:54;0.20;;;0.20;;
42864;SDS011;28511;42.680;23.252;2023-04-15T10:58:22;0.52;;;0.52;;
42864;SDS011;28511;42.680;23.252;2023-04-15T11:00:52;1.02;;;0.43;;
42864;SDS011;28511;42.680;23.252;2023-04-15T11:03:32;1.45;;;0.45;;
42864;SDS011;28511;42.680;23.252;2023-04-15T11:06:00;0.88;;;0.63;;
42864;SDS011;28511;42.680;23.252;2023-04-15T11:11:09;1.10;;;0.50;;
42864;SDS011;28511;42.680;23.252;2023-04-15T11:13:35;0.37;;;0.37;;
42864;SDS011;28511;42.680;23.252;2023-04-15T11:16:02;0.45;;;0.45;;
42864;SDS011;28511;42.680;23.252;2023-04-15T11:18:29;0.52;;;0.40;;
42864;SDS011;28511;42.680;23.252;2023-04-15T11:20:55;0.30;;;0.30;;
42864;SDS011;28511;42.680;23.252;2023-04-15T11:23:34;0.40;;;0.40;;
42864;SDS011;28511;42.680;23.252;2023-04-15T11:26:00;0.52;;;0.28;;
42864;SDS011;28511;42.680;23.252;2023-04-15T11:28:27;1.35;;;0.60;;
42864;SDS011;28511;42.680;23.252;2023-04-15T11:30:52;1.27;;;0.40;;
42864;SDS011;28511;42.680;23.252;2023-04-15T11:33:19;0.30;;;0.30;;
42864;SDS011;28511;42.680;23.252;2023-04-15T11:35:46;1.55;;;0.88;;
42864;SDS011;28511;42.680;23.252;2023-04-15T11:38:12;0.47;;;0.40;;
42864;SDS011;28511;42.680;23.252;2023-04-15T11:40:41;0.75;;;0.70;;
42864;SDS011;28511;42.680;23.252;2023-04-15T11:43:13;0.52;;;0.52;;
42864;SDS011;28511;42.680;23.252;2023-04-15T11:45:55;0.40;;;0.40;;
42864;SDS011;28511;42.680;23.252;2023-04-15T11:48:22;0.65;;;0.40;;
42864;SDS011;28511;42.680;23.252;2023-04-15T11:50:52;0.77;;;0.57;;
42864;SDS011;28511;42.680;23.252;2023-04-15T11:53:17;0.80;;;0.50;;
42864;SDS011;28511;42.680;23.252;2023-04-15T11:55:44;0.40;;;0.40;;
42864;SDS011;28511;42.680;23.252;2023-04-15T12:00:35;1.08;;;0.63;;
42864;SDS011;28511;42.680;23.252;2023-04-15T12:03:10;0.82;;;0.73;;
42864;SDS011;28511;42.680;23.252;2023-04-15T12:05:36;0.40;;;0.40;;
42864;SDS011;28511;42.680;23.252;2023-04-15T12:08:01;0.30;;;0.30;;
42864;SDS011;28511;42.680;23.252;2023-04-15T12:10:26;1.10;;;0.40;;
42864;SDS011;28511;42.680;23.252;2023-04-15T12:12:52;0.82;;;0.82;;
42864;SDS011;28511;42.680;23.252;2023-04-15T12:15:20;0.25;;;0.25;;
42864;SDS011;28511;42.680;23.252;2023-04-15T12:17:45;0.20;;;0.20;;
42864;SDS011;28511;42.680;23.252;2023-04-15T12:20:11;0.93;;;0.70;;
42864;SDS011;28511;42.680;23.252;2023-04-15T12:22:36;0.55;;;0.30;;
42864;SDS011;28511;42.680;23.252;2023-04-15T12:25:01;0.90;;;0.73;;
42864;SDS011;28511;42.680;23.252;2023-04-15T12:27:27;0.20;;;0.20;;
42864;SDS011;28511;42.680;23.252;2023-04-15T12:29:58;0.77;;;0.40;;
42864;SDS011;28511;42.680;23.252;2023-04-15T12:32:27;1.23;;;0.55;;
42864;SDS011;28511;42.680;23.252;2023-04-15T12:34:53;0.68;;;0.68;;
42864;SDS011;28511;42.680;23.252;2023-04-15T12:37:19;0.20;;;0.20;;
42864;SDS011;28511;42.680;23.252;2023-04-15T12:39:45;1.85;;;0.35;;
42864;SDS011;28511;42.680;23.252;2023-04-15T12:42:13;1.33;;;0.50;;
42864;SDS011;28511;42.680;23.252;2023-04-15T12:44:38;0.20;;;0.20;;
42864;SDS011;28511;42.680;23.252;2023-04-15T12:47:04;0.90;;;0.40;;
42864;SDS011;28511;42.680;23.252;2023-04-15T12:49:30;0.20;;;0.20;;
42864;SDS011;28511;42.680;23.252;2023-04-15T12:51:57;0.85;;;0.60;;
42864;SDS011;28511;42.680;23.252;2023-04-15T12:54:24;0.10;;;0.10;;
42864;SDS011;28511;42.680;23.252;2023-04-15T12:56:49;0.63;;;0.60;;
42864;SDS011;28511;42.680;23.252;2023-04-15T12:59:15;0.75;;;0.50;;
42864;SDS011;28511;42.680;23.252;2023-04-15T13:01:42;0.20;;;0.20;;
42864;SDS011;28511;42.680;23.252;2023-04-15T13:04:08;0.25;;;0.25;;
42864;SDS011;28511;42.680;23.252;2023-04-15T13:06:33;2.80;;;0.43;;
42864;SDS011;28511;42.680;23.252;2023-04-15T13:08:59;0.73;;;0.60;;
42864;SDS011;28511;42.680;23.252;2023-04-15T13:11:25;1.20;;;0.35;;
42864;SDS011;28511;42.680;23.252;2023-04-15T13:13:51;0.22;;;0.22;;
42864;SDS011;28511;42.680;23.252;2023-04-15T13:16:17;0.30;;;0.30;;
42864;SDS011;28511;42.680;23.252;2023-04-15T13:18:42;0.28;;;0.28;;
42864;SDS011;28511;42.680;23.252;2023-04-15T13:21:07;1.55;;;0.73;;
42864;SDS011;28511;42.680;23.252;2023-04-15T13:23:34;0.52;;;0.52;;
42864;SDS011;28511;42.680;23.252;2023-04-15T13:26:00;0.40;;;0.40;;
42864;SDS011;28511;42.680;23.252;2023-04-15T13:28:25;0.52;;;0.40;;
42864;SDS011;28511;42.680;23.252;2023-04-15T13:30:51;0.65;;;0.50;;
42864;SDS011;28511;42.680;23.252;2023-04-15T13:33:16;0.30;;;0.30;;
42864;SDS011;28511;42.680;23.252;2023-04-15T13:35:42;0.20;;;0.20;;
42864;SDS011;28511;42.680;23.252;2023-04-15T13:38:07;0.60;;;0.60;;
42864;SDS011;28511;42.680;23.252;2023-04-15T13:40:32;0.30;;;0.30;;
42864;SDS011;28511;42.680;23.252;2023-04-15T13:42:58;1.60;;;0.98;;
42864;SDS011;28511;42.680;23.252;2023-04-15T13:45:23;0.17;;;0.17;;
42864;SDS011;28511;42.680;23.252;2023-04-15T13:47:49;0.20;;;0.20;;
42864;SDS011;28511;42.680;23.252;2023-04-15T13:50:14;0.30;;;0.30;;
42864;SDS011;28511;42.680;23.252;2023-04-15T13:52:39;0.35;;;0.35;;
42864;SDS011;28511;42.680;23.252;2023-04-15T13:55:05;0.30;;;0.30;;
42864;SDS011;28511;42.680;23.252;2023-04-15T13:57:31;0.22;;;0.22;;
42864;SDS011;28511;42.680;23.252;2023-04-15T13:59:56;0.25;;;0.25;;
42864;SDS011;28511;42.680;23.252;2023-04-15T14:02:21;0.73;;;0.40;;
42864;SDS011;28511;42.680;23.252;2023-04-15T14:04:47;0.40;;;0.40;;
42864;SDS011;28511;42.680;23.252;2023-04-15T14:07:12;1.08;;;0.40;;
42864;SDS011;28511;42.680;23.252;2023-04-15T14:09:37;0.20;;;0.20;;
42864;SDS011;28511;42.680;23.252;2023-04-15T14:12:03;0.20;;;0.20;;
42864;SDS011;28511;42.680;23.252;2023-04-15T14:14:28;0.30;;;0.30;;
42864;SDS011;28511;42.680;23.252;2023-04-15T14:16:54;0.20;;;0.20;;
42864;SDS011;28511;42.680;23.252;2023-04-15T14:19:20;0.17;;;0.17;;
42864;SDS011;28511;42.680;23.252;2023-04-15T14:21:46;1.08;;;0.30;;
42864;SDS011;28511;42.680;23.252;2023-04-15T14:24:11;1.10;;;0.45;;
42864;SDS011;28511;42.680;23.252;2023-04-15T14:26:36;1.13;;;0.60;;
42864;SDS011;28511;42.680;23.252;2023-04-15T14:29:01;0.28;;;0.28;;
42864;SDS011;28511;42.680;23.252;2023-04-15T14:31:27;0.75;;;0.32;;